Time;durP1;ratioP1;P1;durP2;ratioP2;P2;SDS_P1;SDS_P2;PMS_P1;PMS_P2;Temp;Humidity;BMP_temperature;BMP_pressure;BME280_temperature;BME280_humidity;BME280_pressure;Samples;Min_cycle;Max_cycle;Signal;HPM_P1;HPM_P2
2021/04/28 00:01:39;;;;;;;6.47;3.40;;;11.60;49.90;;;;;;5001939;28;20491;-80
2021/04/28 00:04:06;;;;;;;4.32;2.90;;;11.50;50.10;;;;;;4979674;28;20061;-79
2021/04/28 00:06:32;;;;;;;5.85;3.00;;;11.50;50.30;;;;;;4995600;28;20072;-80
2021/04/28 00:08:57;;;;;;;5.85;3.08;;;11.50;50.20;;;;;;4995617;28;20038;-79
2021/04/28 00:11:23;;;;;;;4.70;2.83;;;11.40;49.70;;;;;;5015234;28;20025;-79
2021/04/28 00:13:49;;;;;;;9.65;2.95;;;11.40;50.10;;;;;;5003021;28;20034;-80
2021/04/28 00:16:19;;;;;;;5.50;3.03;;;11.40;50.50;;;;;;4992617;28;20014;-79
2021/04/28 00:18:46;;;;;;;4.67;3.00;;;11.30;50.80;;;;;;5003053;28;20034;-80
2021/04/28 00:21:13;;;;;;;7.25;3.00;;;11.30;50.90;;;;;;4979082;28;20152;-79
2021/04/28 00:23:39;;;;;;;6.35;3.88;;;11.30;51.10;;;;;;5016879;28;20029;-79
2021/04/28 00:26:04;;;;;;;5.85;3.22;;;11.30;51.80;;;;;;4979822;28;20392;-80
2021/04/28 00:28:30;;;;;;;6.13;3.25;;;11.20;51.20;;;;;;5024594;28;20038;-80
2021/04/28 00:30:56;;;;;;;6.38;2.97;;;11.20;51.20;;;;;;5004510;28;20059;-80
2021/04/28 00:33:21;;;;;;;5.78;3.10;;;11.10;50.60;;;;;;4979072;28;20131;-80
2021/04/28 00:35:47;;;;;;;5.72;2.90;;;11.10;50.70;;;;;;4995031;28;20173;-80
2021/04/28 00:38:12;;;;;;;7.53;3.78;;;11.10;51.30;;;;;;4994935;28;20371;-79
2021/04/28 00:40:40;;;;;;;6.07;3.20;;;11.10;50.50;;;;;;4987571;28;20040;-79
2021/04/28 00:43:15;;;;;;;5.32;3.10;;;11.00;51.20;;;;;;5018152;28;20022;-79
2021/04/28 00:45:43;;;;;;;5.07;2.90;;;11.00;51.80;;;;;;5006187;28;20472;-80
2021/04/28 00:48:11;;;;;;;6.32;3.05;;;11.00;51.30;;;;;;4995610;28;20030;-79
2021/04/28 00:51:02;;;;;;;5.75;3.35;;;10.90;51.50;;;;;;5023732;28;20387;-80
2021/04/28 00:53:28;;;;;;;5.43;3.10;;;10.90;50.40;;;;;;4991692;28;20236;-79
2021/04/28 00:55:56;;;;;;;8.07;3.47;;;10.80;51.90;;;;;;4976306;28;20033;-79
2021/04/28 00:58:23;;;;;;;6.43;3.55;;;10.80;51.40;;;;;;5011200;28;20056;-79
2021/04/28 01:00:49;;;;;;;4.57;2.95;;;10.80;51.50;;;;;;5011930;28;20033;-80
2021/04/28 01:03:15;;;;;;;4.30;2.60;;;10.70;51.90;;;;;;5019874;28;20044;-79
2021/04/28 01:05:41;;;;;;;10.43;3.00;;;10.80;52.00;;;;;;5030613;28;20443;-79
2021/04/28 01:08:07;;;;;;;8.18;3.20;;;10.70;52.00;;;;;;5030805;28;20029;-79
2021/04/28 01:10:36;;;;;;;4.70;2.75;;;10.70;52.50;;;;;;5011907;28;20028;-80
2021/04/28 01:13:05;;;;;;;5.78;2.72;;;10.70;52.20;;;;;;5010997;28;20041;-79
2021/04/28 01:15:33;;;;;;;7.28;2.92;;;10.60;52.10;;;;;;5010820;28;20021;-79
2021/04/28 01:17:59;;;;;;;6.10;3.67;;;10.60;53.40;;;;;;5010778;28;20466;-79
2021/04/28 01:20:27;;;;;;;6.88;3.03;;;10.60;52.70;;;;;;4996013;28;20026;-79
2021/04/28 01:22:53;;;;;;;5.72;3.00;;;10.60;52.90;;;;;;5022625;28;20030;-79
2021/04/28 01:25:22;;;;;;;5.13;2.92;;;10.60;53.50;;;;;;5010896;28;20088;-79
2021/04/28 01:28:00;;;;;;;4.80;3.10;;;10.50;52.70;;;;;;5011046;28;20026;-79
2021/04/28 01:30:37;;;;;;;6.82;3.40;;;10.50;52.90;;;;;;5012427;28;20080;-79
2021/04/28 01:33:05;;;;;;;7.05;3.60;;;10.40;53.80;;;;;;5012225;28;20106;-79
2021/04/28 01:35:32;;;;;;;5.75;3.60;;;10.40;53.70;;;;;;4995459;28;20050;-79
2021/04/28 01:38:00;;;;;;;6.78;3.10;;;10.40;53.70;;;;;;5014520;28;20014;-79
2021/04/28 01:40:26;;;;;;;7.88;3.22;;;10.40;53.80;;;;;;4998193;28;20673;-79
2021/04/28 01:42:53;;;;;;;7.05;3.42;;;10.30;54.20;;;;;;5015509;28;20475;-79
2021/04/28 01:45:20;;;;;;;5.60;3.13;;;10.30;53.60;;;;;;5007985;28;20124;-79
2021/04/28 01:47:45;;;;;;;5.75;2.97;;;10.30;54.20;;;;;;5019192;28;20029;-79
2021/04/28 01:50:13;;;;;;;7.07;3.42;;;10.20;54.00;;;;;;4981543;28;20052;-79
2021/04/28 01:52:44;;;;;;;6.53;3.00;;;10.20;53.70;;;;;;4997905;28;20053;-79
2021/04/28 01:55:11;;;;;;;7.78;3.05;;;10.20;53.80;;;;;;4997827;28;20029;-79
2021/04/28 01:57:38;;;;;;;6.18;3.28;;;10.20;54.40;;;;;;4981610;28;20575;-79
2021/04/28 02:00:11;;;;;;;7.55;3.30;;;10.10;53.80;;;;;;4997533;28;20118;-80
2021/04/28 02:02:39;;;;;;;8.55;3.50;;;10.10;54.20;;;;;;5026681;28;20095;-79
2021/04/28 02:05:06;;;;;;;7.05;3.20;;;10.10;54.30;;;;;;4998390;28;20096;-79
2021/04/28 02:07:32;;;;;;;8.10;3.90;;;10.00;54.30;;;;;;5013854;28;20036;-80
2021/04/28 02:09:59;;;;;;;5.93;2.85;;;10.00;54.60;;;;;;4997367;28;20578;-80
2021/04/28 02:12:24;;;;;;;8.10;3.50;;;10.00;54.20;;;;;;4997721;28;20460;-80
2021/04/28 02:14:52;;;;;;;6.32;3.33;;;9.90;54.30;;;;;;4997310;28;20084;-80
2021/04/28 02:17:21;;;;;;;6.40;3.10;;;9.90;54.90;;;;;;5012705;28;20108;-80
2021/04/28 02:19:47;;;;;;;5.60;3.38;;;9.80;55.10;;;;;;5014788;28;20451;-80
2021/04/28 02:22:15;;;;;;;5.78;3.40;;;9.90;55.20;;;;;;4988305;28;20061;-79
2021/04/28 02:25:12;;;;;;;8.80;3.05;;;9.80;55.30;;;;;;5003419;28;20124;-79
2021/04/28 02:27:38;;;;;;;5.75;3.15;;;9.80;55.50;;;;;;5030022;28;20421;-79
2021/04/28 02:30:07;;;;;;;6.63;3.33;;;9.80;55.90;;;;;;5024572;28;20034;-79
2021/04/28 02:32:33;;;;;;;6.38;3.08;;;9.70;56.10;;;;;;5014567;28;20471;-79
2021/04/28 02:34:58;;;;;;;6.55;3.35;;;9.70;55.40;;;;;;5004077;28;20087;-80
2021/04/28 02:37:27;;;;;;;6.70;3.70;;;9.60;56.00;;;;;;5004044;28;20029;-79
2021/04/28 02:39:59;;;;;;;5.38;3.08;;;9.60;56.00;;;;;;5013363;28;20100;-80
2021/04/28 02:42:26;;;;;;;7.57;3.25;;;9.60;55.90;;;;;;5014753;28;20425;-80
2021/04/28 02:44:55;;;;;;;8.30;4.10;;;9.50;55.30;;;;;;4994617;28;20022;-80
2021/04/28 02:47:22;;;;;;;5.65;3.33;;;9.50;56.50;;;;;;5013169;28;20029;-79
2021/04/28 02:49:49;;;;;;;6.28;3.42;;;9.50;56.30;;;;;;4991262;28;20049;-80
2021/04/28 02:52:15;;;;;;;5.63;3.58;;;9.50;55.70;;;;;;4996809;28;20030;-79
2021/04/28 02:54:41;;;;;;;6.78;3.20;;;9.40;55.90;;;;;;5013150;28;20087;-79
2021/04/28 02:57:07;;;;;;;8.77;3.65;;;9.40;56.30;;;;;;4996016;28;20029;-80
2021/04/28 02:59:33;;;;;;;6.50;3.10;;;9.30;56.30;;;;;;4996855;28;20033;-80
2021/04/28 03:01:59;;;;;;;6.35;3.65;;;9.30;55.90;;;;;;5009210;28;20029;-79
2021/04/28 03:04:25;;;;;;;5.22;3.15;;;9.30;56.00;;;;;;4999936;28;20038;-80
2021/04/28 03:06:51;;;;;;;6.25;3.35;;;9.30;55.70;;;;;;5013957;28;20038;-79
2021/04/28 03:09:17;;;;;;;5.45;3.30;;;9.30;56.00;;;;;;4996534;28;20041;-79
2021/04/28 03:11:44;;;;;;;7.57;3.67;;;9.20;56.50;;;;;;5013510;28;20026;-80
2021/04/28 03:14:11;;;;;;;6.05;3.28;;;9.20;56.50;;;;;;5021351;28;20518;-80
2021/04/28 03:16:36;;;;;;;6.18;3.40;;;9.10;56.00;;;;;;5016575;28;20030;-79
2021/04/28 03:19:04;;;;;;;14.70;4.50;;;9.10;55.90;;;;;;4996195;28;20030;-79
2021/04/28 03:21:34;;;;;;;4.75;3.00;;;9.10;56.40;;;;;;5012807;28;20088;-79
2021/04/28 03:24:00;;;;;;;7.00;3.35;;;9.00;56.60;;;;;;5012602;28;20442;-79
2021/04/28 03:26:27;;;;;;;6.25;3.25;;;9.00;57.30;;;;;;5021705;28;20009;-79
2021/04/28 03:29:18;;;;;;;4.82;3.28;;;9.00;57.40;;;;;;5018100;28;20030;-79
2021/04/28 03:31:43;;;;;;;6.00;3.30;;;8.90;57.40;;;;;;5021596;28;20044;-79
2021/04/28 03:34:09;;;;;;;6.22;3.55;;;8.90;57.00;;;;;;5011059;28;20104;-79
2021/04/28 03:36:35;;;;;;;6.53;3.83;;;8.90;57.80;;;;;;5021923;28;20426;-79
2021/04/28 03:39:00;;;;;;;5.75;3.22;;;8.90;57.80;;;;;;5001117;28;20040;-79
2021/04/28 03:41:28;;;;;;;8.48;3.72;;;8.80;57.80;;;;;;5013416;28;20034;-79
2021/04/28 03:44:00;;;;;;;6.93;3.53;;;8.80;57.60;;;;;;5008759;28;20038;-79
2021/04/28 03:46:25;;;;;;;6.28;3.47;;;8.80;57.90;;;;;;5012355;28;20147;-79
2021/04/28 03:48:51;;;;;;;5.90;3.70;;;8.70;58.20;;;;;;4979529;28;20033;-79
2021/04/28 03:51:20;;;;;;;6.88;3.97;;;8.70;58.40;;;;;;5011967;28;20028;-79
2021/04/28 03:54:15;;;;;;;5.57;3.50;;;8.70;58.10;;;;;;5011971;28;20018;-79
2021/04/28 03:56:41;;;;;;;6.85;3.72;;;8.70;57.80;;;;;;4998169;28;20022;-79
2021/04/28 03:59:08;;;;;;;7.72;3.83;;;8.70;58.10;;;;;;5011260;28;20375;-79
2021/04/28 04:01:34;;;;;;;8.18;4.13;;;8.60;58.70;;;;;;5013142;28;20030;-79
2021/04/28 04:04:00;;;;;;;8.55;3.88;;;8.60;58.70;;;;;;5019079;23;20112;-80
2021/04/28 04:06:26;;;;;;;7.72;3.70;;;8.60;58.80;;;;;;5011997;28;20022;-80
2021/04/28 04:08:51;;;;;;;6.45;3.58;;;8.60;59.60;;;;;;4987428;28;20041;-80
2021/04/28 04:11:17;;;;;;;6.00;3.55;;;8.60;58.60;;;;;;5017426;28;20033;-80
2021/04/28 04:13:43;;;;;;;5.43;3.53;;;8.50;58.90;;;;;;4995472;28;20030;-80
2021/04/28 04:16:08;;;;;;;8.57;3.53;;;8.50;59.10;;;;;;4995233;28;20030;-80
2021/04/28 04:18:34;;;;;;;5.93;3.60;;;8.50;58.50;;;;;;5008799;28;20033;-80
2021/04/28 04:21:00;;;;;;;7.13;3.67;;;8.40;58.70;;;;;;5022963;28;20837;-80
2021/04/28 04:23:26;;;;;;;6.55;3.60;;;8.50;58.70;;;;;;4998486;28;20038;-79
2021/04/28 04:25:51;;;;;;;6.72;3.50;;;8.50;58.90;;;;;;4994909;28;20022;-80
2021/04/28 04:28:17;;;;;;;7.43;4.13;;;8.40;58.50;;;;;;4995289;28;20037;-80
2021/04/28 04:30:43;;;;;;;9.93;4.88;;;8.40;58.70;;;;;;4995121;28;20026;-80
2021/04/28 04:33:10;;;;;;;6.53;3.97;;;8.40;59.00;;;;;;5019921;28;20106;-80
2021/04/28 04:35:38;;;;;;;5.75;3.70;;;8.40;59.20;;;;;;5017315;28;20109;-80
2021/04/28 04:38:04;;;;;;;7.63;3.72;;;8.40;59.40;;;;;;5032318;28;20014;-80
2021/04/28 04:40:31;;;;;;;6.55;3.63;;;8.30;59.50;;;;;;5002089;28;20502;-80
2021/04/28 04:42:56;;;;;;;6.15;3.65;;;8.40;59.10;;;;;;5015860;28;20014;-80
2021/04/28 04:45:22;;;;;;;5.82;3.83;;;8.30;59.00;;;;;;5014771;28;20038;-80
2021/04/28 04:47:48;;;;;;;8.73;4.38;;;8.30;59.30;;;;;;5028054;28;20387;-80
2021/04/28 04:50:13;;;;;;;6.15;3.72;;;8.30;59.50;;;;;;5004045;28;20029;-80
2021/04/28 04:52:39;;;;;;;6.22;3.80;;;8.30;58.80;;;;;;5016157;28;20026;-80
2021/04/28 04:55:06;;;;;;;6.72;3.55;;;8.30;59.20;;;;;;5001714;28;20108;-80
2021/04/28 04:57:31;;;;;;;5.95;3.25;;;8.30;59.30;;;;;;5001609;28;20427;-80
2021/04/28 05:00:04;;;;;;;5.88;3.38;;;8.30;59.20;;;;;;5008520;28;20022;-80
2021/04/28 05:02:29;;;;;;;6.47;3.60;;;8.30;59.50;;;;;;4993649;28;20065;-80
2021/04/28 05:04:55;;;;;;;6.18;3.50;;;8.30;60.20;;;;;;5001061;28;20512;-80
2021/04/28 05:07:39;;;;;;;6.55;3.35;;;8.20;59.40;;;;;;5001981;28;20027;-80
2021/04/28 05:10:07;;;;;;;7.68;3.40;;;8.30;59.60;;;;;;4999033;28;20066;-80
2021/04/28 05:12:33;;;;;;;6.25;3.75;;;8.30;60.00;;;;;;5001884;28;20080;-80
2021/04/28 05:14:59;;;;;;;7.30;3.50;;;8.30;60.00;;;;;;5003024;28;20022;-80
2021/04/28 05:17:25;;;;;;;4.85;3.13;;;8.30;59.70;;;;;;4997691;28;20105;-80
2021/04/28 05:19:52;;;;;;;4.72;3.20;;;8.30;59.70;;;;;;5016644;28;20471;-79
2021/04/28 05:22:26;;;;;;;7.97;3.63;;;8.30;60.00;;;;;;5019027;28;20395;-80
2021/04/28 05:24:52;;;;;;;8.27;3.95;;;8.30;60.20;;;;;;4998924;28;20021;-80
2021/04/28 05:27:17;;;;;;;8.05;3.95;;;8.30;59.50;;;;;;5014220;28;20101;-81
2021/04/28 05:29:43;;;;;;;8.57;3.85;;;8.30;59.40;;;;;;5011847;28;20096;-80
2021/04/28 05:32:09;;;;;;;5.82;3.55;;;8.40;58.90;;;;;;4998321;28;20033;-80
2021/04/28 05:34:35;;;;;;;6.63;3.53;;;8.40;59.10;;;;;;4999142;28;20387;-80
2021/04/28 05:37:01;;;;;;;6.90;3.80;;;8.40;60.20;;;;;;4995398;28;20060;-80
2021/04/28 05:39:26;;;;;;;6.45;3.20;;;8.50;58.90;;;;;;4998355;28;20428;-81
2021/04/28 05:41:52;;;;;;;5.70;3.72;;;8.50;58.70;;;;;;4986671;28;20045;-80
2021/04/28 05:44:19;;;;;;;4.85;3.28;;;8.50;59.00;;;;;;5001716;28;20105;-81
2021/04/28 05:46:46;;;;;;;7.60;3.60;;;8.50;58.90;;;;;;5022527;28;20030;-82
2021/04/28 05:49:14;;;;;;;5.15;3.28;;;8.60;58.20;;;;;;5031307;28;20034;-81
2021/04/28 05:51:40;;;;;;;5.47;3.17;;;8.50;58.10;;;;;;4998608;28;20029;-81
2021/04/28 05:54:06;;;;;;;6.68;3.50;;;8.50;58.20;;;;;;5008556;28;20037;-81
2021/04/28 05:56:32;;;;;;;6.13;3.47;;;8.60;58.50;;;;;;5026638;28;20025;-82
2021/04/28 05:58:57;;;;;;;6.65;3.53;;;8.60;59.30;;;;;;4982049;28;20037;-81
2021/04/28 06:01:23;;;;;;;4.72;3.10;;;8.60;58.70;;;;;;5000619;28;20034;-81
2021/04/28 06:03:48;;;;;;;6.75;3.42;;;8.60;59.20;;;;;;5014873;28;20712;-81
2021/04/28 06:06:14;;;;;;;6.03;3.50;;;8.60;59.00;;;;;;5012661;28;20487;-81
2021/04/28 06:08:40;;;;;;;6.40;3.45;;;8.70;59.70;;;;;;5004567;28;20048;-81
2021/04/28 06:11:05;;;;;;;5.68;3.30;;;8.70;60.70;;;;;;5031962;28;20036;-81
2021/04/28 06:13:31;;;;;;;5.80;3.05;;;8.70;59.00;;;;;;4998532;28;20499;-81
2021/04/28 06:16:00;;;;;;;7.18;3.50;;;8.80;58.40;;;;;;5032706;28;20112;-80
2021/04/28 06:18:26;;;;;;;11.65;3.30;;;8.80;58.20;;;;;;5013365;28;20500;-81
2021/04/28 06:20:51;;;;;;;9.75;3.80;;;8.80;58.50;;;;;;5008032;28;20076;-81
2021/04/28 06:23:18;;;;;;;7.05;3.85;;;8.90;58.00;;;;;;4987466;28;20053;-81
2021/04/28 06:25:45;;;;;;;6.55;3.70;;;8.90;58.20;;;;;;5006437;28;20060;-81
2021/04/28 06:28:10;;;;;;;6.53;3.03;;;9.00;58.20;;;;;;5011791;28;20045;-81
2021/04/28 06:30:36;;;;;;;9.30;3.35;;;9.00;57.60;;;;;;5001143;28;20026;-82
2021/04/28 06:33:02;;;;;;;6.57;4.15;;;9.00;57.50;;;;;;5016684;28;20383;-80
2021/04/28 06:35:27;;;;;;;6.68;3.80;;;9.10;56.70;;;;;;5018423;28;20394;-81
2021/04/28 06:37:53;;;;;;;6.10;3.28;;;9.10;56.90;;;;;;5022247;28;20034;-81
2021/04/28 06:40:20;;;;;;;6.45;3.72;;;9.10;56.50;;;;;;5015487;28;20096;-85
2021/04/28 06:42:47;;;;;;;7.60;3.38;;;9.20;56.60;;;;;;5004711;28;20368;-85
2021/04/28 06:45:12;;;;;;;8.00;4.07;;;9.20;57.40;;;;;;5019323;28;20049;-85
2021/04/28 06:47:38;;;;;;;9.10;4.00;;;9.20;56.50;;;;;;5016230;28;20053;-85
2021/04/28 06:50:04;;;;;;;5.15;3.42;;;9.20;56.90;;;;;;5018173;28;20076;-84
2021/04/28 06:52:30;;;;;;;6.75;4.15;;;9.20;57.00;;;;;;5023263;28;20060;-85
2021/04/28 06:54:55;;;;;;;7.25;3.53;;;9.30;57.10;;;;;;5014962;28;20053;-83
2021/04/28 06:57:22;;;;;;;6.82;4.00;;;9.30;56.40;;;;;;5026100;28;20021;-84
2021/04/28 06:59:48;;;;;;;7.32;3.50;;;9.30;56.70;;;;;;5004348;28;20038;-85
2021/04/28 07:02:14;;;;;;;6.60;3.85;;;9.40;57.20;;;;;;5020363;28;20029;-85
2021/04/28 07:04:39;;;;;;;6.88;3.90;;;9.50;57.40;;;;;;5000887;28;20518;-86
2021/04/28 07:07:05;;;;;;;5.60;3.13;;;9.50;57.70;;;;;;5005933;28;20030;-84
2021/04/28 07:09:32;;;;;;;6.47;3.63;;;9.50;57.80;;;;;;5025582;28;20038;-85
2021/04/28 07:11:57;;;;;;;6.07;3.40;;;9.60;57.40;;;;;;5005057;28;20390;-84
2021/04/28 07:14:23;;;;;;;7.05;4.05;;;9.60;58.20;;;;;;5000851;28;20030;-85
2021/04/28 07:16:48;;;;;;;6.00;3.80;;;9.70;57.20;;;;;;5018864;28;20041;-85
2021/04/28 07:19:14;;;;;;;7.72;3.70;;;9.70;57.90;;;;;;5036669;28;20108;-85
2021/04/28 07:21:40;;;;;;;6.68;3.97;;;9.70;57.00;;;;;;5023952;28;20053;-85
2021/04/28 07:24:06;;;;;;;5.28;3.33;;;9.80;57.20;;;;;;5025954;28;20029;-85
2021/04/28 07:26:32;;;;;;;5.70;3.50;;;9.90;57.70;;;;;;5037984;28;20018;-86
2021/04/28 07:29:00;;;;;;;6.65;3.75;;;9.90;57.50;;;;;;5025695;28;20022;-86
2021/04/28 07:31:26;;;;;;;9.63;4.22;;;10.00;57.70;;;;;;5028519;28;20087;-86
2021/04/28 07:33:52;;;;;;;6.05;3.45;;;10.00;58.20;;;;;;5013219;28;20075;-85
2021/04/28 07:39:40;;;;;;;7.78;3.90;;;10.20;58.20;;;;;;5029590;28;20088;-84
2021/04/28 07:42:06;;;;;;;7.28;3.42;;;10.30;57.60;;;;;;5030283;28;20025;-84
2021/04/28 07:44:31;;;;;;;6.55;3.80;;;10.30;57.90;;;;;;5005938;28;20120;-83
2021/04/28 07:46:58;;;;;;;6.95;3.72;;;10.40;57.70;;;;;;5005279;28;20057;-84
2021/04/28 07:49:24;;;;;;;6.68;3.88;;;10.50;57.60;;;;;;5018998;28;20033;-84
2021/04/28 07:51:51;;;;;;;6.72;3.97;;;10.60;57.90;;;;;;4997544;28;20030;-84
2021/04/28 07:54:17;;;;;;;6.25;3.70;;;10.70;58.00;;;;;;5013855;28;20021;-84
2021/04/28 07:56:43;;;;;;;5.10;3.15;;;10.80;58.00;;;;;;5013781;28;20029;-85
2021/04/28 07:59:09;;;;;;;5.70;3.05;;;10.90;58.20;;;;;;4998225;28;20034;-84
2021/04/28 08:01:36;;;;;;;5.22;3.13;;;10.90;58.80;;;;;;4994803;28;20399;-85
2021/04/28 08:04:01;;;;;;;5.07;2.97;;;11.10;58.30;;;;;;5015700;28;20057;-84
2021/04/28 08:06:27;;;;;;;4.03;2.72;;;11.20;58.30;;;;;;5003290;28;20037;-84
2021/04/28 08:08:53;;;;;;;5.68;3.35;;;11.30;58.30;;;;;;5008198;28;20026;-85
2021/04/28 08:11:19;;;;;;;8.68;3.42;;;11.30;58.60;;;;;;4992802;28;20027;-85
2021/04/28 08:13:47;;;;;;;6.25;3.50;;;11.40;58.90;;;;;;5015887;28;20028;-84
2021/04/28 08:16:14;;;;;;;5.68;3.05;;;11.50;58.60;;;;;;5021318;28;20018;-84
2021/04/28 08:18:40;;;;;;;5.55;2.97;;;11.60;58.80;;;;;;5010344;28;20112;-84
2021/04/28 08:21:06;;;;;;;5.38;3.28;;;11.70;58.90;;;;;;5010298;28;20046;-84
2021/04/28 08:23:32;;;;;;;7.38;3.70;;;11.80;58.80;;;;;;5023726;28;20022;-83
2021/04/28 08:26:04;;;;;;;6.47;3.95;;;11.90;58.70;;;;;;5023960;28;20476;-84
2021/04/28 08:28:30;;;;;;;5.28;3.20;;;12.00;58.40;;;;;;5007757;28;20033;-84
2021/04/28 08:30:56;;;;;;;6.15;3.75;;;12.10;58.40;;;;;;5022868;28;20444;-83
2021/04/28 08:33:21;;;;;;;7.32;3.60;;;12.20;58.20;;;;;;5012879;28;20145;-84
2021/04/28 08:35:47;;;;;;;7.00;3.90;;;12.30;58.00;;;;;;4998332;28;20033;-84
2021/04/28 08:38:13;;;;;;;4.93;3.30;;;12.40;58.00;;;;;;5024729;28;20026;-84
2021/04/28 08:40:39;;;;;;;6.25;3.17;;;12.50;57.90;;;;;;5024945;28;20122;-84
2021/04/28 08:43:05;;;;;;;6.20;3.90;;;12.60;57.80;;;;;;5018021;28;20496;-83
2021/04/28 08:45:32;;;;;;;7.75;3.67;;;12.70;57.70;;;;;;5021007;28;20052;-83
2021/04/28 08:47:58;;;;;;;6.35;3.83;;;12.80;57.80;;;;;;4994101;28;20050;-84
2021/04/28 08:50:24;;;;;;;5.47;3.40;;;12.90;57.30;;;;;;5005389;28;20028;-84
2021/04/28 08:52:54;;;;;;;7.43;4.13;;;13.00;57.60;;;;;;5017781;28;20018;-83
2021/04/28 08:55:20;;;;;;;8.88;4.22;;;13.10;57.40;;;;;;5021072;28;20367;-84
2021/04/28 08:57:45;;;;;;;7.05;4.30;;;13.20;57.30;;;;;;5032454;28;20293;-84
2021/04/28 09:00:13;;;;;;;6.50;4.22;;;13.30;57.00;;;;;;5011222;28;20026;-85
2021/04/28 09:02:56;;;;;;;5.55;3.55;;;13.40;56.80;;;;;;5011246;28;20558;-85
2021/04/28 09:05:23;;;;;;;5.57;3.63;;;13.50;56.40;;;;;;5005360;28;20428;-85
2021/04/28 09:07:49;;;;;;;7.20;4.03;;;13.60;56.30;;;;;;5012557;28;20492;-84
2021/04/28 09:10:20;;;;;;;7.38;3.90;;;13.70;56.40;;;;;;5027958;28;20034;-85
2021/04/28 09:12:59;;;;;;;7.22;4.30;;;13.80;56.20;;;;;;5012372;28;20544;-85
2021/04/28 09:15:42;;;;;;;9.70;5.97;;;13.90;54.10;;;;;;5011949;28;20475;-85
2021/04/28 09:18:13;;;;;;;6.28;4.28;;;13.90;54.20;;;;;;5025705;28;20371;-85
2021/04/28 09:20:49;;;;;;;;;;;14.00;54.20;;;;;;5012352;28;20096;-85
2021/04/28 09:23:16;;;;;;;6.57;4.45;;;14.10;54.50;;;;;;5016973;28;20351;-85
2021/04/28 09:25:47;;;;;;;8.88;4.30;;;14.20;54.60;;;;;;5021748;28;20026;-84
2021/04/28 09:28:29;;;;;;;9.60;5.05;;;14.30;54.00;;;;;;5024787;28;20014;-84
2021/04/28 09:31:07;;;;;;;6.50;4.18;;;14.40;54.10;;;;;;5010924;28;20033;-84
2021/04/28 09:33:52;;;;;;;5.95;3.88;;;14.50;54.50;;;;;;5020325;28;20025;-80
2021/04/28 09:36:31;;;;;;;7.75;4.13;;;14.60;54.40;;;;;;5041271;28;20041;-81
2021/04/28 09:39:11;;;;;;;5.03;3.60;;;14.70;55.00;;;;;;5013573;28;20026;-81
2021/04/28 09:41:56;;;;;;;6.05;3.50;;;14.90;55.30;;;;;;5018918;28;20033;-81
2021/04/28 09:44:28;;;;;;;5.30;3.42;;;15.00;54.60;;;;;;4998150;28;20026;-81
2021/04/28 09:46:57;;;;;;;7.20;3.88;;;15.10;55.30;;;;;;5021293;28;20026;-81
2021/04/28 09:49:27;;;;;;;5.75;3.63;;;15.20;55.60;;;;;;5028361;28;20030;-81
2021/04/28 09:51:56;;;;;;;8.85;4.35;;;15.40;55.30;;;;;;5030474;28;20033;-81
2021/04/28 09:54:32;;;;;;;6.30;4.00;;;15.50;54.90;;;;;;5025237;28;20013;-80
2021/04/28 09:56:58;;;;;;;9.57;4.50;;;15.60;55.40;;;;;;5005442;28;20037;-81
2021/04/28 09:59:40;;;;;;;6.35;4.32;;;15.60;56.20;;;;;;5022052;28;20030;-81
2021/04/28 10:02:06;;;;;;;8.20;4.10;;;15.70;54.60;;;;;;5023633;28;20040;-81
2021/04/28 10:04:32;;;;;;;7.10;4.35;;;15.80;53.30;;;;;;5026447;23;20120;-83
2021/04/28 10:06:58;;;;;;;10.23;5.00;;;15.90;53.70;;;;;;4975817;28;20456;-83
2021/04/28 10:09:30;;;;;;;6.10;4.18;;;15.90;53.70;;;;;;4978653;28;20026;-83
2021/04/28 10:11:56;;;;;;;8.80;4.68;;;16.00;54.20;;;;;;4995197;28;20030;-83
2021/04/28 10:14:22;;;;;;;6.05;4.38;;;16.10;54.30;;;;;;5007692;28;20027;-84
2021/04/28 10:16:48;;;;;;;7.22;4.40;;;16.30;54.80;;;;;;4986270;28;20032;-83
2021/04/28 10:19:16;;;;;;;7.53;4.70;;;16.30;54.10;;;;;;4994591;28;20054;-82
2021/04/28 10:21:43;;;;;;;8.52;4.90;;;16.40;53.80;;;;;;4994172;28;20380;-83
2021/04/28 10:24:13;;;;;;;5.28;3.85;;;16.40;53.90;;;;;;5010317;28;20022;-83
2021/04/28 10:26:40;;;;;;;9.18;4.28;;;16.50;53.90;;;;;;4975466;28;20109;-82
2021/04/28 10:29:08;;;;;;;7.88;4.65;;;16.60;54.00;;;;;;4994990;28;20022;-83
2021/04/28 10:31:36;;;;;;;7.47;4.30;;;16.60;52.80;;;;;;5007624;28;20018;-84
2021/04/28 10:34:04;;;;;;;8.05;5.43;;;16.70;53.00;;;;;;4994490;28;20470;-83
2021/04/28 10:36:30;;;;;;;8.32;5.22;;;16.70;51.70;;;;;;4994997;28;20129;-82
2021/04/28 10:39:14;;;;;;;8.25;5.30;;;16.80;52.20;;;;;;5009950;28;20142;-82
2021/04/28 10:41:39;;;;;;;9.57;5.68;;;16.80;49.80;;;;;;4987026;28;20030;-80
2021/04/28 10:44:07;;;;;;;9.57;5.00;;;16.90;50.50;;;;;;4994511;28;20486;-80
2021/04/28 10:46:33;;;;;;;9.80;4.68;;;16.90;50.30;;;;;;4993297;28;20557;-80
2021/04/28 10:49:16;;;;;;;7.10;4.82;;;17.00;50.60;;;;;;4993756;28;20121;-82
2021/04/28 10:51:46;;;;;;;7.13;4.80;;;17.10;51.80;;;;;;4990387;28;20113;-84
2021/04/28 10:54:23;;;;;;;9.63;5.13;;;17.10;51.80;;;;;;4992522;28;20369;-86
2021/04/28 10:57:15;;;;;;;7.10;4.85;;;17.20;51.10;;;;;;4994265;28;20030;-82
2021/04/28 10:59:41;;;;;;;6.57;4.95;;;17.20;51.20;;;;;;4983169;28;20074;-82
2021/04/28 11:02:10;;;;;;;7.13;4.63;;;17.30;51.30;;;;;;4992813;28;20034;-81
2021/04/28 11:04:36;;;;;;;8.13;5.10;;;17.40;50.80;;;;;;4988552;28;20050;-80
2021/04/28 11:07:02;;;;;;;8.27;5.32;;;17.50;50.80;;;;;;4986949;28;20039;-81
2021/04/28 11:09:28;;;;;;;7.68;5.07;;;17.60;50.20;;;;;;4992736;28;20142;-79
2021/04/28 11:11:55;;;;;;;6.70;5.00;;;17.70;50.20;;;;;;4992981;28;20476;-79
2021/04/28 11:14:28;;;;;;;8.32;5.03;;;17.80;50.00;;;;;;5009323;28;20034;-80
2021/04/28 11:17:01;;;;;;;8.95;5.35;;;17.90;50.50;;;;;;4974423;28;20372;-80
2021/04/28 11:19:30;;;;;;;8.70;5.85;;;18.10;50.50;;;;;;4990878;28;20375;-80
2021/04/28 11:22:28;;;;;;;7.93;5.47;;;18.20;48.60;;;;;;4994373;28;20407;-80
2021/04/28 11:25:11;;;;;;;8.38;5.70;;;18.20;46.60;;;;;;4980862;28;20034;-80
2021/04/28 11:28:01;;;;;;;10.15;6.78;;;18.30;47.00;;;;;;4999126;28;20034;-80
2021/04/28 11:30:37;;;;;;;9.45;7.18;;;18.30;44.40;;;;;;4992763;28;20022;-80
2021/04/28 11:33:27;;;;;;;8.65;6.40;;;18.40;44.40;;;;;;4992667;28;20387;-80
2021/04/28 11:35:52;;;;;;;8.75;6.97;;;18.40;43.80;;;;;;4994048;28;20050;-80
2021/04/28 11:38:19;;;;;;;9.57;6.78;;;18.40;44.00;;;;;;4992587;28;20503;-80
2021/04/28 11:41:01;;;;;;;9.88;6.65;;;18.50;44.70;;;;;;4992501;28;20443;-81
2021/04/28 11:43:32;;;;;;;9.77;6.72;;;18.60;44.70;;;;;;4993971;28;20424;-80
2021/04/28 11:46:17;;;;;;;7.05;5.72;;;18.70;45.70;;;;;;4973943;28;20090;-80
2021/04/28 11:48:44;;;;;;;8.63;6.07;;;18.80;44.70;;;;;;4978881;28;20121;-80
2021/04/28 11:51:16;;;;;;;8.65;6.50;;;19.00;45.60;;;;;;4992547;28;20030;-80
2021/04/28 11:53:52;;;;;;;9.80;6.38;;;19.00;43.90;;;;;;4993161;28;20050;-80
2021/04/28 11:56:29;;;;;;;10.18;7.22;;;19.10;44.10;;;;;;4994950;28;20034;-80
2021/04/28 11:58:56;;;;;;;9.88;7.05;;;19.20;43.30;;;;;;4989713;28;20054;-80
2021/04/28 12:01:26;;;;;;;7.32;5.50;;;19.30;43.60;;;;;;4992057;28;20435;-80
2021/04/28 12:03:53;;;;;;;10.13;6.60;;;19.40;44.40;;;;;;4991811;28;20403;-80
2021/04/28 12:06:30;;;;;;;9.20;7.00;;;19.50;44.00;;;;;;4993417;28;20437;-80
2021/04/28 12:09:41;;;;;;;8.75;6.80;;;19.60;43.90;;;;;;4993124;28;20052;-81
2021/04/28 12:12:10;;;;;;;9.15;6.63;;;19.60;43.50;;;;;;4970674;28;20027;-80
2021/04/28 12:14:37;;;;;;;10.07;6.97;;;19.70;43.80;;;;;;4974224;28;20476;-80
2021/04/28 12:17:03;;;;;;;13.85;6.80;;;19.70;43.60;;;;;;4975813;28;20027;-80
2021/04/28 12:19:29;;;;;;;12.88;8.30;;;19.80;43.40;;;;;;4991426;28;20023;-80
2021/04/28 12:22:09;;;;;;;9.98;7.95;;;19.80;41.20;;;;;;4991917;28;20917;-81
2021/04/28 12:24:41;;;;;;;11.68;7.28;;;19.80;40.60;;;;;;4993266;28;20113;-80
2021/04/28 12:27:19;;;;;;;10.68;8.32;;;19.80;41.20;;;;;;4991854;28;20028;-80
2021/04/28 12:30:07;;;;;;;11.00;7.70;;;19.90;40.80;;;;;;5007100;28;20388;-80
2021/04/28 12:32:35;;;;;;;12.63;8.25;;;19.90;38.80;;;;;;5006525;28;20380;-80
2021/04/28 12:35:21;;;;;;;12.18;7.85;;;19.90;40.80;;;;;;4992277;28;20035;-80
2021/04/28 12:37:59;;;;;;;9.63;7.70;;;20.00;40.10;;;;;;4990470;28;20030;-80
2021/04/28 12:40:58;;;;;;;11.77;8.77;;;20.00;41.40;;;;;;4991309;28;20030;-80
2021/04/28 12:43:25;;;;;;;11.07;7.95;;;20.10;40.20;;;;;;4992785;28;20030;-80
2021/04/28 12:46:00;;;;;;;11.40;6.30;;;20.10;41.20;;;;;;4991441;28;20026;-80
2021/04/28 12:48:25;;;;;;;11.57;8.57;;;20.20;42.80;;;;;;4991525;28;20037;-80
2021/04/28 12:50:51;;;;;;;10.23;7.40;;;20.30;40.10;;;;;;4991470;28;20039;-79
2021/04/28 12:53:19;;;;;;;10.05;6.65;;;20.30;40.10;;;;;;4991499;28;20108;-80
2021/04/28 12:55:53;;;;;;;9.93;7.38;;;20.40;41.10;;;;;;4992728;28;20030;-80
2021/04/28 12:58:22;;;;;;;11.35;8.00;;;20.40;40.70;;;;;;4990839;28;20023;-80
2021/04/28 13:00:54;;;;;;;8.35;6.22;;;20.50;40.50;;;;;;4976930;28;20026;-80
2021/04/28 13:03:23;;;;;;;9.93;6.82;;;20.60;41.40;;;;;;4989967;28;20122;-80